sensor_id;sensor_type;location;lat;lon;timestamp;temperature;humidity
15231;DHT22;32569;51.762;8.564;2022-08-07T00:02:14;13.80;99.90
15231;DHT22;32569;51.762;8.564;2022-08-07T00:04:41;13.90;99.90
15231;DHT22;32569;51.762;8.564;2022-08-07T00:07:09;13.90;99.90
15231;DHT22;32569;51.762;8.564;2022-08-07T00:09:36;13.90;99.90
15231;DHT22;32569;51.762;8.564;2022-08-07T00:12:04;13.90;99.90
15231;DHT22;32569;51.762;8.564;2022-08-07T00:14:31;13.90;99.90
15231;DHT22;32569;51.762;8.564;2022-08-07T00:16:58;13.90;99.90
15231;DHT22;32569;51.762;8.564;2022-08-07T00:19:27;13.90;99.90
15231;DHT22;32569;51.762;8.564;2022-08-07T00:21:55;14.10;99.90
15231;DHT22;32569;51.762;8.564;2022-08-07T00:24:22;13.90;99.90
15231;DHT22;32569;51.762;8.564;2022-08-07T00:26:49;13.80;99.90
15231;DHT22;32569;51.762;8.564;2022-08-07T00:29:17;13.60;99.90
15231;DHT22;32569;51.762;8.564;2022-08-07T00:31:46;13.50;99.90
15231;DHT22;32569;51.762;8.564;2022-08-07T00:34:13;13.50;99.90
15231;DHT22;32569;51.762;8.564;2022-08-07T00:36:42;13.50;99.90
15231;DHT22;32569;51.762;8.564;2022-08-07T00:39:09;13.50;99.90
15231;DHT22;32569;51.762;8.564;2022-08-07T00:41:38;13.60;99.90
15231;DHT22;32569;51.762;8.564;2022-08-07T00:44:05;13.50;99.90
15231;DHT22;32569;51.762;8.564;2022-08-07T00:46:32;13.60;99.90
15231;DHT22;32569;51.762;8.564;2022-08-07T00:48:59;13.40;99.90
15231;DHT22;32569;51.762;8.564;2022-08-07T00:51:27;13.40;99.90
15231;DHT22;32569;51.762;8.564;2022-08-07T00:53:56;13.40;99.90
15231;DHT22;32569;51.762;8.564;2022-08-07T00:56:23;13.40;99.90
15231;DHT22;32569;51.762;8.564;2022-08-07T00:58:51;13.30;99.90
15231;DHT22;32569;51.762;8.564;2022-08-07T01:01:20;13.40;99.90
15231;DHT22;32569;51.762;8.564;2022-08-07T01:03:48;13.40;99.90
15231;DHT22;32569;51.762;8.564;2022-08-07T01:06:16;13.40;99.90
15231;DHT22;32569;51.762;8.564;2022-08-07T01:08:44;13.40;99.90
15231;DHT22;32569;51.762;8.564;2022-08-07T01:11:14;13.60;99.90
15231;DHT22;32569;51.762;8.564;2022-08-07T01:13:42;13.50;99.90
15231;DHT22;32569;51.762;8.564;2022-08-07T01:16:09;13.60;99.90
15231;DHT22;32569;51.762;8.564;2022-08-07T01:18:38;13.50;99.90
15231;DHT22;32569;51.762;8.564;2022-08-07T01:21:10;13.40;99.90
15231;DHT22;32569;51.762;8.564;2022-08-07T01:23:39;13.30;99.90
15231;DHT22;32569;51.762;8.564;2022-08-07T01:26:07;13.20;99.90
15231;DHT22;32569;51.762;8.564;2022-08-07T01:28:36;12.90;99.90
15231;DHT22;32569;51.762;8.564;2022-08-07T01:31:04;12.80;99.90
15231;DHT22;32569;51.762;8.564;2022-08-07T01:33:32;12.80;99.90
15231;DHT22;32569;51.762;8.564;2022-08-07T01:36:00;12.70;99.90
15231;DHT22;32569;51.762;8.564;2022-08-07T01:38:30;12.80;99.90
15231;DHT22;32569;51.762;8.564;2022-08-07T01:41:08;12.80;99.90
15231;DHT22;32569;51.762;8.564;2022-08-07T01:43:36;12.60;99.90
15231;DHT22;32569;51.762;8.564;2022-08-07T01:46:04;12.50;99.90
15231;DHT22;32569;51.762;8.564;2022-08-07T01:48:34;12.40;99.90
15231;DHT22;32569;51.762;8.564;2022-08-07T01:51:04;12.40;99.90
15231;DHT22;32569;51.762;8.564;2022-08-07T01:53:35;12.30;99.90
15231;DHT22;32569;51.762;8.564;2022-08-07T01:56:08;12.20;99.90
15231;DHT22;32569;51.762;8.564;2022-08-07T01:58:43;12.20;99.90
15231;DHT22;32569;51.762;8.564;2022-08-07T02:01:14;12.10;99.90
15231;DHT22;32569;51.762;8.564;2022-08-07T02:03:44;12.00;99.90
15231;DHT22;32569;51.762;8.564;2022-08-07T02:06:14;11.90;99.90
15231;DHT22;32569;51.762;8.564;2022-08-07T02:08:45;11.90;99.90
15231;DHT22;32569;51.762;8.564;2022-08-07T02:11:13;12.00;99.90
15231;DHT22;32569;51.762;8.564;2022-08-07T02:13:41;12.10;99.90
15231;DHT22;32569;51.762;8.564;2022-08-07T02:16:09;12.10;99.90
15231;DHT22;32569;51.762;8.564;2022-08-07T02:18:38;12.30;99.90
15231;DHT22;32569;51.762;8.564;2022-08-07T02:21:07;12.30;99.90
15231;DHT22;32569;51.762;8.564;2022-08-07T02:23:37;12.30;99.90
15231;DHT22;32569;51.762;8.564;2022-08-07T02:26:07;12.20;99.90
15231;DHT22;32569;51.762;8.564;2022-08-07T02:28:36;12.20;99.90
15231;DHT22;32569;51.762;8.564;2022-08-07T02:31:06;12.30;99.90
15231;DHT22;32569;51.762;8.564;2022-08-07T02:33:35;12.20;99.90
15231;DHT22;32569;51.762;8.564;2022-08-07T02:36:06;12.10;99.90
15231;DHT22;32569;51.762;8.564;2022-08-07T02:38:36;12.10;99.90
15231;DHT22;32569;51.762;8.564;2022-08-07T02:41:04;12.20;99.90
15231;DHT22;32569;51.762;8.564;2022-08-07T02:43:34;12.10;99.90
15231;DHT22;32569;51.762;8.564;2022-08-07T02:46:03;12.10;99.90
15231;DHT22;32569;51.762;8.564;2022-08-07T02:48:31;12.10;99.90
15231;DHT22;32569;51.762;8.564;2022-08-07T02:51:02;12.00;99.90
15231;DHT22;32569;51.762;8.564;2022-08-07T02:53:32;12.00;99.90
15231;DHT22;32569;51.762;8.564;2022-08-07T02:56:00;12.20;99.90
15231;DHT22;32569;51.762;8.564;2022-08-07T02:58:32;12.10;99.90
15231;DHT22;32569;51.762;8.564;2022-08-07T03:01:01;12.20;99.90
15231;DHT22;32569;51.762;8.564;2022-08-07T03:03:31;12.10;99.90
15231;DHT22;32569;51.762;8.564;2022-08-07T03:06:01;12.00;99.90
15231;DHT22;32569;51.762;8.564;2022-08-07T03:08:28;11.90;99.90
15231;DHT22;32569;51.762;8.564;2022-08-07T03:10:55;11.90;99.90
15231;DHT22;32569;51.762;8.564;2022-08-07T03:13:23;11.80;99.90
15231;DHT22;32569;51.762;8.564;2022-08-07T03:15:52;11.80;99.90
15231;DHT22;32569;51.762;8.564;2022-08-07T03:18:20;11.90;99.90
15231;DHT22;32569;51.762;8.564;2022-08-07T03:20:47;12.00;99.90
15231;DHT22;32569;51.762;8.564;2022-08-07T03:23:15;11.90;99.90
15231;DHT22;32569;51.762;8.564;2022-08-07T03:25:45;11.90;99.90
15231;DHT22;32569;51.762;8.564;2022-08-07T03:28:15;11.70;99.90
15231;DHT22;32569;51.762;8.564;2022-08-07T03:30:44;11.70;99.90
15231;DHT22;32569;51.762;8.564;2022-08-07T03:33:13;11.70;99.90
15231;DHT22;32569;51.762;8.564;2022-08-07T03:35:41;11.70;99.90
15231;DHT22;32569;51.762;8.564;2022-08-07T03:38:11;11.70;99.90
15231;DHT22;32569;51.762;8.564;2022-08-07T03:40:39;11.80;99.90
15231;DHT22;32569;51.762;8.564;2022-08-07T03:43:06;11.80;99.90
15231;DHT22;32569;51.762;8.564;2022-08-07T03:45:33;11.70;99.90
15231;DHT22;32569;51.762;8.564;2022-08-07T03:48:01;11.70;99.90
15231;DHT22;32569;51.762;8.564;2022-08-07T03:50:29;11.70;99.90
15231;DHT22;32569;51.762;8.564;2022-08-07T03:52:57;11.70;99.90
15231;DHT22;32569;51.762;8.564;2022-08-07T03:55:25;11.50;99.90
15231;DHT22;32569;51.762;8.564;2022-08-07T03:57:52;11.40;99.90
15231;DHT22;32569;51.762;8.564;2022-08-07T04:00:21;11.20;99.90
15231;DHT22;32569;51.762;8.564;2022-08-07T04:02:51;11.20;99.90
15231;DHT22;32569;51.762;8.564;2022-08-07T04:05:20;11.30;99.90
15231;DHT22;32569;51.762;8.564;2022-08-07T04:07:51;11.30;99.90
15231;DHT22;32569;51.762;8.564;2022-08-07T04:10:20;11.30;99.90
15231;DHT22;32569;51.762;8.564;2022-08-07T04:12:48;11.20;99.90
15231;DHT22;32569;51.762;8.564;2022-08-07T04:15:15;11.10;99.90
15231;DHT22;32569;51.762;8.564;2022-08-07T04:17:45;10.80;99.90
15231;DHT22;32569;51.762;8.564;2022-08-07T04:20:16;10.80;99.90
15231;DHT22;32569;51.762;8.564;2022-08-07T04:22:47;10.90;99.90
15231;DHT22;32569;51.762;8.564;2022-08-07T04:25:17;10.90;99.90
15231;DHT22;32569;51.762;8.564;2022-08-07T04:27:44;10.80;99.90
15231;DHT22;32569;51.762;8.564;2022-08-07T04:30:11;10.60;99.90
15231;DHT22;32569;51.762;8.564;2022-08-07T04:32:38;10.70;99.90
15231;DHT22;32569;51.762;8.564;2022-08-07T04:35:06;10.70;99.90
15231;DHT22;32569;51.762;8.564;2022-08-07T04:37:35;10.70;99.90
15231;DHT22;32569;51.762;8.564;2022-08-07T04:40:03;10.70;99.90
15231;DHT22;32569;51.762;8.564;2022-08-07T04:42:37;10.80;99.90
15231;DHT22;32569;51.762;8.564;2022-08-07T04:45:05;10.90;99.90
15231;DHT22;32569;51.762;8.564;2022-08-07T04:47:37;11.00;99.90
15231;DHT22;32569;51.762;8.564;2022-08-07T04:50:09;11.10;99.90
15231;DHT22;32569;51.762;8.564;2022-08-07T04:52:41;11.70;99.90
15231;DHT22;32569;51.762;8.564;2022-08-07T04:55:17;12.30;99.90
15231;DHT22;32569;51.762;8.564;2022-08-07T04:57:58;12.90;99.90
15231;DHT22;32569;51.762;8.564;2022-08-07T05:00:37;13.40;99.90
15231;DHT22;32569;51.762;8.564;2022-08-07T05:03:09;13.90;99.90
15231;DHT22;32569;51.762;8.564;2022-08-07T05:05:46;14.30;99.90
15231;DHT22;32569;51.762;8.564;2022-08-07T05:08:21;14.80;99.90
15231;DHT22;32569;51.762;8.564;2022-08-07T05:10:55;15.10;99.90
15231;DHT22;32569;51.762;8.564;2022-08-07T05:13:27;15.30;99.90
15231;DHT22;32569;51.762;8.564;2022-08-07T05:16:02;15.50;99.90
15231;DHT22;32569;51.762;8.564;2022-08-07T05:18:32;15.70;99.90
15231;DHT22;32569;51.762;8.564;2022-08-07T05:21:01;15.80;99.90
15231;DHT22;32569;51.762;8.564;2022-08-07T05:23:33;15.90;99.90
15231;DHT22;32569;51.762;8.564;2022-08-07T05:26:04;15.80;99.90
15231;DHT22;32569;51.762;8.564;2022-08-07T05:28:34;16.20;99.90
15231;DHT22;32569;51.762;8.564;2022-08-07T05:31:02;16.70;99.90
15231;DHT22;32569;51.762;8.564;2022-08-07T05:33:33;17.00;99.90
15231;DHT22;32569;51.762;8.564;2022-08-07T05:36:00;17.30;99.90
15231;DHT22;32569;51.762;8.564;2022-08-07T05:38:28;17.30;99.90
15231;DHT22;32569;51.762;8.564;2022-08-07T05:40:56;17.00;99.90
15231;DHT22;32569;51.762;8.564;2022-08-07T05:43:23;16.40;99.90
15231;DHT22;32569;51.762;8.564;2022-08-07T05:45:56;16.00;99.90
15231;DHT22;32569;51.762;8.564;2022-08-07T05:48:24;15.90;99.90
15231;DHT22;32569;51.762;8.564;2022-08-07T05:50:50;15.70;99.90
15231;DHT22;32569;51.762;8.564;2022-08-07T05:53:17;16.10;99.90
15231;DHT22;32569;51.762;8.564;2022-08-07T05:55:45;16.40;99.90
15231;DHT22;32569;51.762;8.564;2022-08-07T05:58:14;16.80;99.90
15231;DHT22;32569;51.762;8.564;2022-08-07T06:00:43;17.00;99.90
15231;DHT22;32569;51.762;8.564;2022-08-07T06:03:13;17.30;99.90
15231;DHT22;32569;51.762;8.564;2022-08-07T06:05:44;17.60;99.90
15231;DHT22;32569;51.762;8.564;2022-08-07T06:08:15;17.70;99.90
15231;DHT22;32569;51.762;8.564;2022-08-07T06:10:42;17.40;99.90
15231;DHT22;32569;51.762;8.564;2022-08-07T06:13:10;17.60;99.90
15231;DHT22;32569;51.762;8.564;2022-08-07T06:15:40;17.50;99.90
15231;DHT22;32569;51.762;8.564;2022-08-07T06:18:07;17.10;99.90
15231;DHT22;32569;51.762;8.564;2022-08-07T06:20:35;17.00;99.90
15231;DHT22;32569;51.762;8.564;2022-08-07T06:23:06;16.70;99.90
15231;DHT22;32569;51.762;8.564;2022-08-07T06:25:34;17.30;99.90
15231;DHT22;32569;51.762;8.564;2022-08-07T06:28:02;17.40;99.90
15231;DHT22;32569;51.762;8.564;2022-08-07T06:30:32;17.10;99.90
15231;DHT22;32569;51.762;8.564;2022-08-07T06:32:59;17.00;99.90
15231;DHT22;32569;51.762;8.564;2022-08-07T06:35:26;16.70;99.90
15231;DHT22;32569;51.762;8.564;2022-08-07T06:37:55;16.70;99.90
15231;DHT22;32569;51.762;8.564;2022-08-07T06:40:22;16.70;99.90
15231;DHT22;32569;51.762;8.564;2022-08-07T06:42:53;16.60;99.90
15231;DHT22;32569;51.762;8.564;2022-08-07T06:45:22;16.60;99.90
15231;DHT22;32569;51.762;8.564;2022-08-07T06:47:50;16.60;99.90
15231;DHT22;32569;51.762;8.564;2022-08-07T06:50:17;16.70;99.90
15231;DHT22;32569;51.762;8.564;2022-08-07T06:52:48;16.70;99.90
15231;DHT22;32569;51.762;8.564;2022-08-07T06:55:23;16.80;99.90
15231;DHT22;32569;51.762;8.564;2022-08-07T06:57:51;16.80;99.90
15231;DHT22;32569;51.762;8.564;2022-08-07T07:00:20;16.90;99.90
15231;DHT22;32569;51.762;8.564;2022-08-07T07:02:50;16.70;99.90
15231;DHT22;32569;51.762;8.564;2022-08-07T07:05:19;16.80;99.90
15231;DHT22;32569;51.762;8.564;2022-08-07T07:07:46;16.90;99.90
15231;DHT22;32569;51.762;8.564;2022-08-07T07:10:19;16.90;99.90
15231;DHT22;32569;51.762;8.564;2022-08-07T07:12:56;17.10;99.90
15231;DHT22;32569;51.762;8.564;2022-08-07T07:15:27;17.20;99.90
15231;DHT22;32569;51.762;8.564;2022-08-07T07:18:03;17.20;99.90
15231;DHT22;32569;51.762;8.564;2022-08-07T07:20:35;17.40;99.90
15231;DHT22;32569;51.762;8.564;2022-08-07T07:23:05;17.40;99.90
15231;DHT22;32569;51.762;8.564;2022-08-07T07:25:38;17.40;98.70
15231;DHT22;32569;51.762;8.564;2022-08-07T07:28:13;17.30;98.70
15231;DHT22;32569;51.762;8.564;2022-08-07T07:30:47;17.40;99.50
15231;DHT22;32569;51.762;8.564;2022-08-07T07:33:17;17.60;98.80
15231;DHT22;32569;51.762;8.564;2022-08-07T07:35:47;17.70;98.60
15231;DHT22;32569;51.762;8.564;2022-08-07T07:38:17;17.80;97.90
15231;DHT22;32569;51.762;8.564;2022-08-07T07:40:47;17.70;97.70
15231;DHT22;32569;51.762;8.564;2022-08-07T07:43:15;17.70;98.10
15231;DHT22;32569;51.762;8.564;2022-08-07T07:45:44;17.90;98.50
15231;DHT22;32569;51.762;8.564;2022-08-07T07:48:15;18.10;98.30
15231;DHT22;32569;51.762;8.564;2022-08-07T07:50:44;18.20;98.10
15231;DHT22;32569;51.762;8.564;2022-08-07T07:53:12;18.00;98.00
15231;DHT22;32569;51.762;8.564;2022-08-07T07:55:43;18.10;98.00
15231;DHT22;32569;51.762;8.564;2022-08-07T07:58:16;18.20;97.80
15231;DHT22;32569;51.762;8.564;2022-08-07T08:00:45;18.10;98.50
15231;DHT22;32569;51.762;8.564;2022-08-07T08:03:16;18.20;98.20
15231;DHT22;32569;51.762;8.564;2022-08-07T08:05:45;18.30;98.20
15231;DHT22;32569;51.762;8.564;2022-08-07T08:08:13;18.40;98.10
15231;DHT22;32569;51.762;8.564;2022-08-07T08:10:41;18.40;98.20
15231;DHT22;32569;51.762;8.564;2022-08-07T08:13:08;18.50;98.30
15231;DHT22;32569;51.762;8.564;2022-08-07T08:15:39;18.50;98.30
15231;DHT22;32569;51.762;8.564;2022-08-07T08:18:09;18.60;98.30
15231;DHT22;32569;51.762;8.564;2022-08-07T08:20:38;18.60;98.00
15231;DHT22;32569;51.762;8.564;2022-08-07T08:23:07;18.60;98.70
15231;DHT22;32569;51.762;8.564;2022-08-07T08:25:54;18.90;97.60
15231;DHT22;32569;51.762;8.564;2022-08-07T08:28:48;19.00;96.70
15231;DHT22;32569;51.762;8.564;2022-08-07T08:31:20;19.00;97.20
15231;DHT22;32569;51.762;8.564;2022-08-07T08:33:52;19.00;97.50
15231;DHT22;32569;51.762;8.564;2022-08-07T08:36:22;19.00;97.40
15231;DHT22;32569;51.762;8.564;2022-08-07T08:38:50;18.90;97.20
15231;DHT22;32569;51.762;8.564;2022-08-07T08:41:21;18.90;97.60
15231;DHT22;32569;51.762;8.564;2022-08-07T08:43:56;19.00;97.60
15231;DHT22;32569;51.762;8.564;2022-08-07T08:46:41;19.20;96.70
15231;DHT22;32569;51.762;8.564;2022-08-07T08:49:19;19.40;97.30
15231;DHT22;32569;51.762;8.564;2022-08-07T08:51:56;19.50;95.20
15231;DHT22;32569;51.762;8.564;2022-08-07T08:54:31;19.60;95.90
15231;DHT22;32569;51.762;8.564;2022-08-07T08:57:03;19.80;95.70
15231;DHT22;32569;51.762;8.564;2022-08-07T08:59:38;20.00;94.50
15231;DHT22;32569;51.762;8.564;2022-08-07T09:02:17;20.30;95.20
15231;DHT22;32569;51.762;8.564;2022-08-07T09:04:55;20.40;93.90
15231;DHT22;32569;51.762;8.564;2022-08-07T09:07:30;20.30;93.90
15231;DHT22;32569;51.762;8.564;2022-08-07T09:10:03;20.40;94.00
15231;DHT22;32569;51.762;8.564;2022-08-07T09:12:47;20.20;92.30
15231;DHT22;32569;51.762;8.564;2022-08-07T09:15:31;20.40;91.50
15231;DHT22;32569;51.762;8.564;2022-08-07T09:18:18;20.50;90.60
15231;DHT22;32569;51.762;8.564;2022-08-07T09:20:53;20.50;90.40
15231;DHT22;32569;51.762;8.564;2022-08-07T09:23:31;20.70;89.70
15231;DHT22;32569;51.762;8.564;2022-08-07T09:26:12;20.60;90.30
15231;DHT22;32569;51.762;8.564;2022-08-07T09:28:41;20.50;90.40
15231;DHT22;32569;51.762;8.564;2022-08-07T09:31:15;20.40;90.20
15231;DHT22;32569;51.762;8.564;2022-08-07T09:33:58;20.60;89.70
15231;DHT22;32569;51.762;8.564;2022-08-07T09:36:35;20.80;90.10
15231;DHT22;32569;51.762;8.564;2022-08-07T09:39:19;20.90;89.20
15231;DHT22;32569;51.762;8.564;2022-08-07T09:41:56;20.80;90.10
15231;DHT22;32569;51.762;8.564;2022-08-07T09:44:43;20.80;91.10
15231;DHT22;32569;51.762;8.564;2022-08-07T09:47:18;20.80;88.70
15231;DHT22;32569;51.762;8.564;2022-08-07T09:49:58;20.70;87.80
15231;DHT22;32569;51.762;8.564;2022-08-07T09:52:31;20.60;89.40
15231;DHT22;32569;51.762;8.564;2022-08-07T09:55:05;20.70;91.10
15231;DHT22;32569;51.762;8.564;2022-08-07T09:58:03;20.70;90.90
15231;DHT22;32569;51.762;8.564;2022-08-07T10:00:48;21.00;90.00
15231;DHT22;32569;51.762;8.564;2022-08-07T10:06:43;21.20;88.70
15231;DHT22;32569;51.762;8.564;2022-08-07T10:09:38;21.20;90.00
15231;DHT22;32569;51.762;8.564;2022-08-07T10:12:17;21.20;88.80
15231;DHT22;32569;51.762;8.564;2022-08-07T10:15:09;21.20;89.40
15231;DHT22;32569;51.762;8.564;2022-08-07T10:17:56;21.30;87.10
15231;DHT22;32569;51.762;8.564;2022-08-07T10:20:35;21.30;90.20
15231;DHT22;32569;51.762;8.564;2022-08-07T10:23:29;21.50;88.00
15231;DHT22;32569;51.762;8.564;2022-08-07T10:26:04;21.30;87.60
15231;DHT22;32569;51.762;8.564;2022-08-07T10:28:49;21.30;86.70
15231;DHT22;32569;51.762;8.564;2022-08-07T10:31:32;21.40;89.00
15231;DHT22;32569;51.762;8.564;2022-08-07T10:34:13;21.70;88.70
15231;DHT22;32569;51.762;8.564;2022-08-07T10:36:55;21.80;87.00
15231;DHT22;32569;51.762;8.564;2022-08-07T10:39:36;21.80;87.20
15231;DHT22;32569;51.762;8.564;2022-08-07T10:42:19;21.50;87.20
15231;DHT22;32569;51.762;8.564;2022-08-07T10:44:57;21.40;87.20
15231;DHT22;32569;51.762;8.564;2022-08-07T10:47:32;21.40;87.40
15231;DHT22;32569;51.762;8.564;2022-08-07T10:50:07;21.60;86.90
15231;DHT22;32569;51.762;8.564;2022-08-07T10:52:45;21.60;85.40
15231;DHT22;32569;51.762;8.564;2022-08-07T10:55:17;21.30;86.20
15231;DHT22;32569;51.762;8.564;2022-08-07T10:57:51;21.40;87.00
15231;DHT22;32569;51.762;8.564;2022-08-07T11:00:28;21.30;86.40
15231;DHT22;32569;51.762;8.564;2022-08-07T11:03:01;21.10;84.80
15231;DHT22;32569;51.762;8.564;2022-08-07T11:05:35;21.10;85.70
15231;DHT22;32569;51.762;8.564;2022-08-07T11:08:11;21.10;86.90
15231;DHT22;32569;51.762;8.564;2022-08-07T11:10:46;21.20;86.90
15231;DHT22;32569;51.762;8.564;2022-08-07T11:13:19;21.20;88.60
15231;DHT22;32569;51.762;8.564;2022-08-07T11:15:52;21.30;86.50
15231;DHT22;32569;51.762;8.564;2022-08-07T11:18:25;21.30;85.00
15231;DHT22;32569;51.762;8.564;2022-08-07T11:20:58;21.30;86.30
15231;DHT22;32569;51.762;8.564;2022-08-07T11:23:35;21.30;86.70
15231;DHT22;32569;51.762;8.564;2022-08-07T11:26:12;21.30;85.90
15231;DHT22;32569;51.762;8.564;2022-08-07T11:28:44;21.30;87.10
15231;DHT22;32569;51.762;8.564;2022-08-07T11:31:21;21.40;86.10
15231;DHT22;32569;51.762;8.564;2022-08-07T11:33:53;21.40;87.10
15231;DHT22;32569;51.762;8.564;2022-08-07T11:36:37;21.50;87.60
15231;DHT22;32569;51.762;8.564;2022-08-07T11:39:16;21.80;84.80
15231;DHT22;32569;51.762;8.564;2022-08-07T11:41:58;21.90;84.30
15231;DHT22;32569;51.762;8.564;2022-08-07T11:44:35;21.90;84.20
15231;DHT22;32569;51.762;8.564;2022-08-07T11:47:11;21.80;84.80
15231;DHT22;32569;51.762;8.564;2022-08-07T11:50:13;22.00;85.30
15231;DHT22;32569;51.762;8.564;2022-08-07T11:52:53;22.10;85.60
15231;DHT22;32569;51.762;8.564;2022-08-07T11:55:32;22.30;85.80
15231;DHT22;32569;51.762;8.564;2022-08-07T11:58:16;22.30;84.70
15231;DHT22;32569;51.762;8.564;2022-08-07T12:00:54;22.40;85.00
15231;DHT22;32569;51.762;8.564;2022-08-07T12:03:35;22.40;83.90
15231;DHT22;32569;51.762;8.564;2022-08-07T12:06:37;22.30;84.70
15231;DHT22;32569;51.762;8.564;2022-08-07T12:09:15;22.40;83.20
15231;DHT22;32569;51.762;8.564;2022-08-07T12:11:46;22.20;82.80
15231;DHT22;32569;51.762;8.564;2022-08-07T12:14:24;22.20;83.10
15231;DHT22;32569;51.762;8.564;2022-08-07T12:16:59;22.20;84.00
15231;DHT22;32569;51.762;8.564;2022-08-07T12:19:33;22.20;84.50
15231;DHT22;32569;51.762;8.564;2022-08-07T12:22:07;22.20;84.10
15231;DHT22;32569;51.762;8.564;2022-08-07T12:24:40;22.20;83.80
15231;DHT22;32569;51.762;8.564;2022-08-07T12:27:34;22.10;84.80
15231;DHT22;32569;51.762;8.564;2022-08-07T12:30:07;22.10;86.20
15231;DHT22;32569;51.762;8.564;2022-08-07T12:32:39;22.10;83.70
15231;DHT22;32569;51.762;8.564;2022-08-07T12:35:13;22.30;83.90
15231;DHT22;32569;51.762;8.564;2022-08-07T12:37:42;22.40;83.40
15231;DHT22;32569;51.762;8.564;2022-08-07T12:40:12;22.30;83.40
15231;DHT22;32569;51.762;8.564;2022-08-07T12:42:43;22.30;84.20
15231;DHT22;32569;51.762;8.564;2022-08-07T12:45:18;22.20;85.90
15231;DHT22;32569;51.762;8.564;2022-08-07T12:47:54;22.40;84.10
15231;DHT22;32569;51.762;8.564;2022-08-07T12:50:27;22.50;84.60
15231;DHT22;32569;51.762;8.564;2022-08-07T12:53:00;22.50;85.20
15231;DHT22;32569;51.762;8.564;2022-08-07T12:55:33;22.50;87.20
15231;DHT22;32569;51.762;8.564;2022-08-07T12:58:03;22.50;86.20
15231;DHT22;32569;51.762;8.564;2022-08-07T13:00:46;22.50;84.40
15231;DHT22;32569;51.762;8.564;2022-08-07T13:03:30;22.50;84.50
15231;DHT22;32569;51.762;8.564;2022-08-07T13:06:08;22.50;86.00
15231;DHT22;32569;51.762;8.564;2022-08-07T13:08:50;22.60;83.80
15231;DHT22;32569;51.762;8.564;2022-08-07T13:11:33;22.70;85.10
15231;DHT22;32569;51.762;8.564;2022-08-07T13:14:09;22.60;84.90
15231;DHT22;32569;51.762;8.564;2022-08-07T13:16:49;22.50;85.90
15231;DHT22;32569;51.762;8.564;2022-08-07T13:19:32;22.60;86.70
15231;DHT22;32569;51.762;8.564;2022-08-07T13:22:06;22.60;85.20
15231;DHT22;32569;51.762;8.564;2022-08-07T13:24:39;22.60;86.90
15231;DHT22;32569;51.762;8.564;2022-08-07T13:27:12;22.80;85.20
15231;DHT22;32569;51.762;8.564;2022-08-07T13:29:46;22.90;85.20
15231;DHT22;32569;51.762;8.564;2022-08-07T13:32:22;23.20;84.70
15231;DHT22;32569;51.762;8.564;2022-08-07T13:34:55;23.10;84.80
15231;DHT22;32569;51.762;8.564;2022-08-07T13:37:30;23.00;83.80
15231;DHT22;32569;51.762;8.564;2022-08-07T13:40:12;22.90;84.80
15231;DHT22;32569;51.762;8.564;2022-08-07T13:42:42;22.90;85.10
15231;DHT22;32569;51.762;8.564;2022-08-07T13:45:09;22.90;83.60
15231;DHT22;32569;51.762;8.564;2022-08-07T13:47:38;22.60;84.10
15231;DHT22;32569;51.762;8.564;2022-08-07T13:50:08;22.70;83.40
15231;DHT22;32569;51.762;8.564;2022-08-07T13:52:39;22.60;84.10
15231;DHT22;32569;51.762;8.564;2022-08-07T13:55:11;22.50;83.10
15231;DHT22;32569;51.762;8.564;2022-08-07T13:57:41;22.60;85.50
15231;DHT22;32569;51.762;8.564;2022-08-07T14:00:09;22.60;85.60
15231;DHT22;32569;51.762;8.564;2022-08-07T14:02:39;22.60;84.20
15231;DHT22;32569;51.762;8.564;2022-08-07T14:05:11;22.60;83.90
15231;DHT22;32569;51.762;8.564;2022-08-07T14:07:42;22.50;84.80
15231;DHT22;32569;51.762;8.564;2022-08-07T14:10:11;22.40;84.40
15231;DHT22;32569;51.762;8.564;2022-08-07T14:12:42;22.30;84.50
15231;DHT22;32569;51.762;8.564;2022-08-07T14:15:25;22.30;85.00
15231;DHT22;32569;51.762;8.564;2022-08-07T14:17:58;22.40;84.60
15231;DHT22;32569;51.762;8.564;2022-08-07T14:20:30;22.50;84.40
15231;DHT22;32569;51.762;8.564;2022-08-07T14:23:05;22.70;85.00
15231;DHT22;32569;51.762;8.564;2022-08-07T14:25:34;22.90;85.50
15231;DHT22;32569;51.762;8.564;2022-08-07T14:28:05;23.20;84.10
15231;DHT22;32569;51.762;8.564;2022-08-07T14:30:34;23.10;83.80
15231;DHT22;32569;51.762;8.564;2022-08-07T14:33:07;23.20;84.80
15231;DHT22;32569;51.762;8.564;2022-08-07T14:35:38;23.30;83.70
15231;DHT22;32569;51.762;8.564;2022-08-07T14:38:07;23.10;84.10
15231;DHT22;32569;51.762;8.564;2022-08-07T14:40:35;23.10;83.50
15231;DHT22;32569;51.762;8.564;2022-08-07T14:43:04;23.00;83.10
15231;DHT22;32569;51.762;8.564;2022-08-07T14:45:41;23.10;83.40
15231;DHT22;32569;51.762;8.564;2022-08-07T14:48:12;23.00;83.70
15231;DHT22;32569;51.762;8.564;2022-08-07T14:50:42;22.90;84.80
15231;DHT22;32569;51.762;8.564;2022-08-07T14:53:10;22.90;85.30
15231;DHT22;32569;51.762;8.564;2022-08-07T14:55:39;22.80;84.90
15231;DHT22;32569;51.762;8.564;2022-08-07T14:58:10;23.00;86.60
15231;DHT22;32569;51.762;8.564;2022-08-07T15:00:41;23.10;87.60
15231;DHT22;32569;51.762;8.564;2022-08-07T15:03:11;23.10;86.20
15231;DHT22;32569;51.762;8.564;2022-08-07T15:05:39;23.30;85.30
15231;DHT22;32569;51.762;8.564;2022-08-07T15:08:09;23.20;85.70
15231;DHT22;32569;51.762;8.564;2022-08-07T15:10:39;23.10;84.80
15231;DHT22;32569;51.762;8.564;2022-08-07T15:13:14;23.20;85.70
15231;DHT22;32569;51.762;8.564;2022-08-07T15:15:44;23.10;85.60
15231;DHT22;32569;51.762;8.564;2022-08-07T15:18:16;23.30;85.40
15231;DHT22;32569;51.762;8.564;2022-08-07T15:20:45;23.20;85.70
15231;DHT22;32569;51.762;8.564;2022-08-07T15:23:19;23.30;84.60
15231;DHT22;32569;51.762;8.564;2022-08-07T15:25:53;23.30;85.10
15231;DHT22;32569;51.762;8.564;2022-08-07T15:28:25;23.40;84.30
15231;DHT22;32569;51.762;8.564;2022-08-07T15:30:54;23.40;84.80
15231;DHT22;32569;51.762;8.564;2022-08-07T15:33:26;23.40;85.40
15231;DHT22;32569;51.762;8.564;2022-08-07T15:35:55;23.40;85.40
15231;DHT22;32569;51.762;8.564;2022-08-07T15:38:27;23.50;85.10
15231;DHT22;32569;51.762;8.564;2022-08-07T15:40:55;23.50;83.80
15231;DHT22;32569;51.762;8.564;2022-08-07T15:43:24;23.50;84.80
15231;DHT22;32569;51.762;8.564;2022-08-07T15:45:53;23.50;84.80
15231;DHT22;32569;51.762;8.564;2022-08-07T15:48:25;23.60;84.30
15231;DHT22;32569;51.762;8.564;2022-08-07T15:50:55;23.50;84.10
15231;DHT22;32569;51.762;8.564;2022-08-07T15:53:27;23.30;83.80
15231;DHT22;32569;51.762;8.564;2022-08-07T15:55:57;23.50;85.00
15231;DHT22;32569;51.762;8.564;2022-08-07T15:58:33;23.60;84.90
15231;DHT22;32569;51.762;8.564;2022-08-07T16:01:05;23.60;85.60
15231;DHT22;32569;51.762;8.564;2022-08-07T16:03:37;23.50;83.80
15231;DHT22;32569;51.762;8.564;2022-08-07T16:06:07;23.40;83.40